sensor_id;sensor_type;location;lat;lon;timestamp;temperature;humidity
50738;DHT22;36703;48.154;17.126;2022-09-17T00:03:01;19.20;51.70
50738;DHT22;36703;48.154;17.126;2022-09-17T00:07:03;19.30;51.80
50738;DHT22;36703;48.154;17.126;2022-09-17T00:11:19;19.30;51.60
50738;DHT22;36703;48.154;17.126;2022-09-17T00:15:23;19.30;51.50
50738;DHT22;36703;48.154;17.126;2022-09-17T00:19:24;19.30;51.50
50738;DHT22;36703;48.154;17.126;2022-09-17T00:23:26;19.30;51.50
50738;DHT22;36703;48.154;17.126;2022-09-17T00:27:27;19.30;51.50
50738;DHT22;36703;48.154;17.126;2022-09-17T00:31:29;19.30;51.50
50738;DHT22;36703;48.154;17.126;2022-09-17T00:35:30;19.40;52.10
50738;DHT22;36703;48.154;17.126;2022-09-17T00:39:32;19.40;51.40
50738;DHT22;36703;48.154;17.126;2022-09-17T00:43:36;19.40;51.40
50738;DHT22;36703;48.154;17.126;2022-09-17T00:48:00;19.40;51.40
50738;DHT22;36703;48.154;17.126;2022-09-17T00:52:18;19.30;51.40
50738;DHT22;36703;48.154;17.126;2022-09-17T00:56:25;19.20;51.50
50738;DHT22;36703;48.154;17.126;2022-09-17T01:00:29;19.30;51.60
50738;DHT22;36703;48.154;17.126;2022-09-17T01:04:31;19.20;51.50
50738;DHT22;36703;48.154;17.126;2022-09-17T01:12:56;19.00;51.60
50738;DHT22;36703;48.154;17.126;2022-09-17T01:26:03;18.90;51.90
50738;DHT22;36703;48.154;17.126;2022-09-17T01:43:21;19.00;51.70
50738;DHT22;36703;48.154;17.126;2022-09-17T01:47:46;19.00;51.60
50738;DHT22;36703;48.154;17.126;2022-09-17T01:51:55;19.00;51.50
50738;DHT22;36703;48.154;17.126;2022-09-17T01:55:58;19.00;51.60
50738;DHT22;36703;48.154;17.126;2022-09-17T02:00:07;19.00;51.40
50738;DHT22;36703;48.154;17.126;2022-09-17T02:04:35;19.00;51.30
50738;DHT22;36703;48.154;17.126;2022-09-17T02:08:44;19.00;51.30
50738;DHT22;36703;48.154;17.126;2022-09-17T02:12:55;18.90;51.10
50738;DHT22;36703;48.154;17.126;2022-09-17T02:17:06;19.00;51.20
50738;DHT22;36703;48.154;17.126;2022-09-17T02:21:27;19.00;51.20
50738;DHT22;36703;48.154;17.126;2022-09-17T02:25:37;19.10;51.20
50738;DHT22;36703;48.154;17.126;2022-09-17T02:29:42;19.00;51.10
50738;DHT22;36703;48.154;17.126;2022-09-17T02:33:47;19.00;51.20
50738;DHT22;36703;48.154;17.126;2022-09-17T02:37:51;19.00;51.10
50738;DHT22;36703;48.154;17.126;2022-09-17T02:55:19;19.00;50.80
50738;DHT22;36703;48.154;17.126;2022-09-17T02:59:59;18.90;50.90
50738;DHT22;36703;48.154;17.126;2022-09-17T03:04:12;18.80;51.10
50738;DHT22;36703;48.154;17.126;2022-09-17T03:08:16;18.80;51.20
50738;DHT22;36703;48.154;17.126;2022-09-17T03:12:20;18.80;51.20
50738;DHT22;36703;48.154;17.126;2022-09-17T03:16:21;18.80;51.20
50738;DHT22;36703;48.154;17.126;2022-09-17T03:20:23;18.70;51.30
50738;DHT22;36703;48.154;17.126;2022-09-17T03:24:24;18.70;51.50
50738;DHT22;36703;48.154;17.126;2022-09-17T03:28:25;18.70;51.50
50738;DHT22;36703;48.154;17.126;2022-09-17T03:32:27;18.70;51.60
50738;DHT22;36703;48.154;17.126;2022-09-17T03:36:28;18.70;51.60
50738;DHT22;36703;48.154;17.126;2022-09-17T03:40:29;18.70;52.10
50738;DHT22;36703;48.154;17.126;2022-09-17T03:44:30;18.70;51.60
50738;DHT22;36703;48.154;17.126;2022-09-17T03:48:31;18.70;51.70
50738;DHT22;36703;48.154;17.126;2022-09-17T03:52:37;18.70;51.70
50738;DHT22;36703;48.154;17.126;2022-09-17T03:56:38;18.70;51.70
50738;DHT22;36703;48.154;17.126;2022-09-17T04:00:39;18.70;51.70
50738;DHT22;36703;48.154;17.126;2022-09-17T04:04:40;18.70;51.60
50738;DHT22;36703;48.154;17.126;2022-09-17T04:08:42;18.70;51.50
50738;DHT22;36703;48.154;17.126;2022-09-17T04:12:43;18.70;51.60
50738;DHT22;36703;48.154;17.126;2022-09-17T04:16:44;18.60;51.50
50738;DHT22;36703;48.154;17.126;2022-09-17T04:20:46;18.70;51.50
50738;DHT22;36703;48.154;17.126;2022-09-17T04:24:47;18.70;51.40
50738;DHT22;36703;48.154;17.126;2022-09-17T04:28:48;18.70;51.30
50738;DHT22;36703;48.154;17.126;2022-09-17T04:32:50;18.70;51.20
50738;DHT22;36703;48.154;17.126;2022-09-17T04:36:51;18.70;51.30
50738;DHT22;36703;48.154;17.126;2022-09-17T04:40:52;18.60;51.30
50738;DHT22;36703;48.154;17.126;2022-09-17T04:44:57;18.60;51.40
50738;DHT22;36703;48.154;17.126;2022-09-17T04:48:58;18.50;51.50
50738;DHT22;36703;48.154;17.126;2022-09-17T04:52:59;18.40;51.70
50738;DHT22;36703;48.154;17.126;2022-09-17T04:57:01;18.40;51.90
50738;DHT22;36703;48.154;17.126;2022-09-17T05:01:02;18.40;51.90
50738;DHT22;36703;48.154;17.126;2022-09-17T05:05:04;18.40;52.10
50738;DHT22;36703;48.154;17.126;2022-09-17T05:09:05;18.40;52.30
50738;DHT22;36703;48.154;17.126;2022-09-17T05:13:06;18.40;52.30
50738;DHT22;36703;48.154;17.126;2022-09-17T05:17:07;18.40;52.30
50738;DHT22;36703;48.154;17.126;2022-09-17T05:21:09;18.40;52.30
50738;DHT22;36703;48.154;17.126;2022-09-17T05:25:11;18.40;52.20
50738;DHT22;36703;48.154;17.126;2022-09-17T05:29:13;18.40;52.10
50738;DHT22;36703;48.154;17.126;2022-09-17T05:33:14;18.50;52.00
50738;DHT22;36703;48.154;17.126;2022-09-17T05:37:15;18.50;52.00
50738;DHT22;36703;48.154;17.126;2022-09-17T05:41:16;18.60;51.90
50738;DHT22;36703;48.154;17.126;2022-09-17T05:45:18;18.60;51.80
50738;DHT22;36703;48.154;17.126;2022-09-17T05:49:19;18.60;51.80
50738;DHT22;36703;48.154;17.126;2022-09-17T05:53:21;18.60;51.70
50738;DHT22;36703;48.154;17.126;2022-09-17T05:57:22;18.60;51.70
50738;DHT22;36703;48.154;17.126;2022-09-17T06:01:24;18.60;51.60
50738;DHT22;36703;48.154;17.126;2022-09-17T06:05:25;18.60;51.70
50738;DHT22;36703;48.154;17.126;2022-09-17T06:09:27;18.60;51.80
50738;DHT22;36703;48.154;17.126;2022-09-17T06:13:28;18.50;51.80
50738;DHT22;36703;48.154;17.126;2022-09-17T06:17:32;18.50;51.90
50738;DHT22;36703;48.154;17.126;2022-09-17T06:21:34;18.50;51.90
50738;DHT22;36703;48.154;17.126;2022-09-17T06:25:36;18.50;51.90
50738;DHT22;36703;48.154;17.126;2022-09-17T06:29:36;18.50;52.00
50738;DHT22;36703;48.154;17.126;2022-09-17T06:33:38;18.50;52.00
50738;DHT22;36703;48.154;17.126;2022-09-17T06:37:40;18.60;51.90
50738;DHT22;36703;48.154;17.126;2022-09-17T06:41:41;18.60;51.80
50738;DHT22;36703;48.154;17.126;2022-09-17T06:45:43;18.60;52.40
50738;DHT22;36703;48.154;17.126;2022-09-17T06:49:44;18.70;51.80
50738;DHT22;36703;48.154;17.126;2022-09-17T06:53:45;18.60;51.80
50738;DHT22;36703;48.154;17.126;2022-09-17T06:57:47;18.70;51.80
50738;DHT22;36703;48.154;17.126;2022-09-17T07:01:48;18.70;51.80
50738;DHT22;36703;48.154;17.126;2022-09-17T07:05:50;18.70;51.80
50738;DHT22;36703;48.154;17.126;2022-09-17T07:09:51;18.70;51.90
50738;DHT22;36703;48.154;17.126;2022-09-17T07:13:53;18.70;51.80
50738;DHT22;36703;48.154;17.126;2022-09-17T07:17:55;18.60;51.90
50738;DHT22;36703;48.154;17.126;2022-09-17T07:21:57;18.60;52.20
50738;DHT22;36703;48.154;17.126;2022-09-17T07:26:00;18.60;52.20
50738;DHT22;36703;48.154;17.126;2022-09-17T07:30:03;18.70;52.20
50738;DHT22;36703;48.154;17.126;2022-09-17T07:34:05;18.70;52.20
50738;DHT22;36703;48.154;17.126;2022-09-17T07:38:06;18.80;52.10
50738;DHT22;36703;48.154;17.126;2022-09-17T07:42:07;18.80;52.10
50738;DHT22;36703;48.154;17.126;2022-09-17T07:46:18;18.70;52.10
50738;DHT22;36703;48.154;17.126;2022-09-17T07:50:19;18.70;52.00
50738;DHT22;36703;48.154;17.126;2022-09-17T07:54:21;18.80;52.00
50738;DHT22;36703;48.154;17.126;2022-09-17T07:58:33;18.80;52.10
50738;DHT22;36703;48.154;17.126;2022-09-17T08:02:36;18.80;52.10
50738;DHT22;36703;48.154;17.126;2022-09-17T08:06:37;18.80;52.00
50738;DHT22;36703;48.154;17.126;2022-09-17T08:10:40;18.80;52.00
50738;DHT22;36703;48.154;17.126;2022-09-17T08:14:41;18.80;51.80
50738;DHT22;36703;48.154;17.126;2022-09-17T08:18:45;18.90;51.60
50738;DHT22;36703;48.154;17.126;2022-09-17T08:22:46;18.90;51.50
50738;DHT22;36703;48.154;17.126;2022-09-17T08:26:48;18.90;51.20
50738;DHT22;36703;48.154;17.126;2022-09-17T08:30:49;19.00;51.00
50738;DHT22;36703;48.154;17.126;2022-09-17T08:34:51;19.00;50.60
50738;DHT22;36703;48.154;17.126;2022-09-17T08:38:54;18.90;50.40
50738;DHT22;36703;48.154;17.126;2022-09-17T08:43:00;18.90;50.40
50738;DHT22;36703;48.154;17.126;2022-09-17T08:47:14;18.90;50.30
50738;DHT22;36703;48.154;17.126;2022-09-17T08:56:15;18.90;49.90
50738;DHT22;36703;48.154;17.126;2022-09-17T09:00:20;18.80;49.90
50738;DHT22;36703;48.154;17.126;2022-09-17T09:08:43;18.70;49.50
50738;DHT22;36703;48.154;17.126;2022-09-17T09:12:49;18.70;49.20
50738;DHT22;36703;48.154;17.126;2022-09-17T09:16:53;18.60;49.00
50738;DHT22;36703;48.154;17.126;2022-09-17T09:25:24;18.50;48.60
50738;DHT22;36703;48.154;17.126;2022-09-17T09:33:46;18.50;48.40
50738;DHT22;36703;48.154;17.126;2022-09-17T09:38:02;18.50;48.10
50738;DHT22;36703;48.154;17.126;2022-09-17T09:42:13;18.50;47.80
50738;DHT22;36703;48.154;17.126;2022-09-17T09:51:11;18.30;47.70
50738;DHT22;36703;48.154;17.126;2022-09-17T09:59:25;18.20;47.90
50738;DHT22;36703;48.154;17.126;2022-09-17T10:03:28;18.20;47.90
50738;DHT22;36703;48.154;17.126;2022-09-17T10:07:42;18.20;47.80
50738;DHT22;36703;48.154;17.126;2022-09-17T10:20:21;18.20;47.60
50738;DHT22;36703;48.154;17.126;2022-09-17T10:24:27;18.20;47.60
50738;DHT22;36703;48.154;17.126;2022-09-17T10:28:48;18.10;47.20
50738;DHT22;36703;48.154;17.126;2022-09-17T10:42:12;18.10;46.90
50738;DHT22;36703;48.154;17.126;2022-09-17T10:46:25;18.20;46.90
50738;DHT22;36703;48.154;17.126;2022-09-17T10:50:31;18.20;46.60
50738;DHT22;36703;48.154;17.126;2022-09-17T10:58:58;18.50;46.30
50738;DHT22;36703;48.154;17.126;2022-09-17T11:11:53;19.00;45.10
50738;DHT22;36703;48.154;17.126;2022-09-17T11:37:45;19.00;44.30
50738;DHT22;36703;48.154;17.126;2022-09-17T11:41:52;18.90;44.20
50738;DHT22;36703;48.154;17.126;2022-09-17T11:46:06;18.90;44.20
50738;DHT22;36703;48.154;17.126;2022-09-17T11:50:31;18.80;44.10
50738;DHT22;36703;48.154;17.126;2022-09-17T11:55:22;18.80;44.30
50738;DHT22;36703;48.154;17.126;2022-09-17T11:59:51;18.80;44.20
50738;DHT22;36703;48.154;17.126;2022-09-17T12:04:34;18.80;44.30
50738;DHT22;36703;48.154;17.126;2022-09-17T12:08:52;18.80;44.30
50738;DHT22;36703;48.154;17.126;2022-09-17T12:17:21;18.80;44.30
50738;DHT22;36703;48.154;17.126;2022-09-17T12:21:30;19.00;44.30
50738;DHT22;36703;48.154;17.126;2022-09-17T12:25:51;18.90;44.10
50738;DHT22;36703;48.154;17.126;2022-09-17T12:30:14;19.00;44.10
50738;DHT22;36703;48.154;17.126;2022-09-17T12:39:08;18.80;44.10
50738;DHT22;36703;48.154;17.126;2022-09-17T12:43:50;18.80;44.10
50738;DHT22;36703;48.154;17.126;2022-09-17T12:56:47;18.70;44.30
50738;DHT22;36703;48.154;17.126;2022-09-17T13:09:33;18.70;44.40
50738;DHT22;36703;48.154;17.126;2022-09-17T13:22:32;18.70;44.50
50738;DHT22;36703;48.154;17.126;2022-09-17T13:26:45;18.80;44.50
50738;DHT22;36703;48.154;17.126;2022-09-17T13:31:00;18.80;44.60
50738;DHT22;36703;48.154;17.126;2022-09-17T13:39:43;18.70;44.60
50738;DHT22;36703;48.154;17.126;2022-09-17T13:43:46;18.70;44.70
50738;DHT22;36703;48.154;17.126;2022-09-17T13:51:55;18.70;44.80
50738;DHT22;36703;48.154;17.126;2022-09-17T13:55:58;18.70;45.20
50738;DHT22;36703;48.154;17.126;2022-09-17T14:00:02;18.70;45.60
50738;DHT22;36703;48.154;17.126;2022-09-17T14:12:51;18.60;46.50
50738;DHT22;36703;48.154;17.126;2022-09-17T14:16:54;18.50;46.60
50738;DHT22;36703;48.154;17.126;2022-09-17T14:25:25;18.40;47.10
50738;DHT22;36703;48.154;17.126;2022-09-17T14:34:02;18.30;47.40
50738;DHT22;36703;48.154;17.126;2022-09-17T14:38:20;18.30;47.50
50738;DHT22;36703;48.154;17.126;2022-09-17T14:42:29;18.20;47.60
50738;DHT22;36703;48.154;17.126;2022-09-17T14:47:00;18.30;47.70
50738;DHT22;36703;48.154;17.126;2022-09-17T14:51:30;18.30;47.70
50738;DHT22;36703;48.154;17.126;2022-09-17T14:55:32;18.40;47.70
50738;DHT22;36703;48.154;17.126;2022-09-17T14:59:52;18.40;47.50
50738;DHT22;36703;48.154;17.126;2022-09-17T15:08:19;18.40;47.80
50738;DHT22;36703;48.154;17.126;2022-09-17T15:12:27;18.30;48.00
50738;DHT22;36703;48.154;17.126;2022-09-17T15:16:29;18.30;48.30
50738;DHT22;36703;48.154;17.126;2022-09-17T15:20:33;18.30;48.30
50738;DHT22;36703;48.154;17.126;2022-09-17T15:28:44;18.20;48.30
50738;DHT22;36703;48.154;17.126;2022-09-17T15:32:51;18.20;48.20
50738;DHT22;36703;48.154;17.126;2022-09-17T15:37:17;18.10;48.10
50738;DHT22;36703;48.154;17.126;2022-09-17T15:41:27;18.10;48.10
50738;DHT22;36703;48.154;17.126;2022-09-17T15:45:33;18.10;48.20
50738;DHT22;36703;48.154;17.126;2022-09-17T15:49:39;18.10;48.20
50738;DHT22;36703;48.154;17.126;2022-09-17T15:53:50;18.10;48.40
50738;DHT22;36703;48.154;17.126;2022-09-17T15:57:58;18.00;49.10
50738;DHT22;36703;48.154;17.126;2022-09-17T16:02:01;18.00;49.50
50738;DHT22;36703;48.154;17.126;2022-09-17T16:06:02;18.00;49.70
50738;DHT22;36703;48.154;17.126;2022-09-17T16:10:04;18.00;49.80
50738;DHT22;36703;48.154;17.126;2022-09-17T16:14:06;18.00;49.90
50738;DHT22;36703;48.154;17.126;2022-09-17T16:18:10;18.00;50.00
50738;DHT22;36703;48.154;17.126;2022-09-17T16:22:12;18.00;49.90
50738;DHT22;36703;48.154;17.126;2022-09-17T16:26:17;18.00;49.80
50738;DHT22;36703;48.154;17.126;2022-09-17T16:30:21;18.00;49.70
50738;DHT22;36703;48.154;17.126;2022-09-17T16:34:23;18.00;49.70
50738;DHT22;36703;48.154;17.126;2022-09-17T16:38:25;18.00;49.70
50738;DHT22;36703;48.154;17.126;2022-09-17T16:42:30;18.00;49.70
50738;DHT22;36703;48.154;17.126;2022-09-17T16:46:31;18.10;49.60
50738;DHT22;36703;48.154;17.126;2022-09-17T16:50:33;18.10;49.60
50738;DHT22;36703;48.154;17.126;2022-09-17T16:54:34;18.10;49.60
50738;DHT22;36703;48.154;17.126;2022-09-17T16:58:35;18.10;49.60
50738;DHT22;36703;48.154;17.126;2022-09-17T17:02:37;18.10;49.60
50738;DHT22;36703;48.154;17.126;2022-09-17T17:06:38;18.10;49.80
50738;DHT22;36703;48.154;17.126;2022-09-17T17:10:39;18.00;49.50
50738;DHT22;36703;48.154;17.126;2022-09-17T17:14:41;18.10;49.60
50738;DHT22;36703;48.154;17.126;2022-09-17T17:18:44;18.10;49.50
50738;DHT22;36703;48.154;17.126;2022-09-17T17:22:45;18.10;49.50
50738;DHT22;36703;48.154;17.126;2022-09-17T17:26:47;18.10;49.40
50738;DHT22;36703;48.154;17.126;2022-09-17T17:30:49;18.20;49.40
50738;DHT22;36703;48.154;17.126;2022-09-17T17:34:50;18.10;49.40
50738;DHT22;36703;48.154;17.126;2022-09-17T17:39:00;18.10;49.30
50738;DHT22;36703;48.154;17.126;2022-09-17T17:43:02;18.00;49.30
50738;DHT22;36703;48.154;17.126;2022-09-17T17:47:03;18.00;49.30
50738;DHT22;36703;48.154;17.126;2022-09-17T17:51:07;18.00;49.30
50738;DHT22;36703;48.154;17.126;2022-09-17T17:55:09;17.90;49.30
50738;DHT22;36703;48.154;17.126;2022-09-17T17:59:11;17.90;49.30
50738;DHT22;36703;48.154;17.126;2022-09-17T18:03:12;17.90;49.30
50738;DHT22;36703;48.154;17.126;2022-09-17T18:07:13;18.00;49.30
50738;DHT22;36703;48.154;17.126;2022-09-17T18:11:14;17.90;49.30
50738;DHT22;36703;48.154;17.126;2022-09-17T18:15:16;17.80;49.20
50738;DHT22;36703;48.154;17.126;2022-09-17T18:19:17;17.80;49.40
50738;DHT22;36703;48.154;17.126;2022-09-17T18:23:19;17.70;49.50
50738;DHT22;36703;48.154;17.126;2022-09-17T18:27:20;17.60;49.60
50738;DHT22;36703;48.154;17.126;2022-09-17T18:31:30;17.70;49.60
50738;DHT22;36703;48.154;17.126;2022-09-17T18:35:35;17.70;49.80
50738;DHT22;36703;48.154;17.126;2022-09-17T18:39:36;17.60;49.80
50738;DHT22;36703;48.154;17.126;2022-09-17T18:43:39;17.60;49.90
50738;DHT22;36703;48.154;17.126;2022-09-17T18:47:40;17.50;50.00
50738;DHT22;36703;48.154;17.126;2022-09-17T18:51:42;17.50;50.90
50738;DHT22;36703;48.154;17.126;2022-09-17T18:55:45;17.50;50.60
50738;DHT22;36703;48.154;17.126;2022-09-17T18:59:46;17.50;50.80
50738;DHT22;36703;48.154;17.126;2022-09-17T19:03:48;17.40;50.90
50738;DHT22;36703;48.154;17.126;2022-09-17T19:07:49;17.40;51.20
50738;DHT22;36703;48.154;17.126;2022-09-17T19:11:51;17.40;51.30
50738;DHT22;36703;48.154;17.126;2022-09-17T19:15:56;17.40;51.50
50738;DHT22;36703;48.154;17.126;2022-09-17T19:20:01;17.30;51.50
50738;DHT22;36703;48.154;17.126;2022-09-17T19:24:03;17.30;51.50
50738;DHT22;36703;48.154;17.126;2022-09-17T19:28:04;17.30;51.70
50738;DHT22;36703;48.154;17.126;2022-09-17T19:32:06;17.20;51.90
50738;DHT22;36703;48.154;17.126;2022-09-17T19:36:12;17.20;52.10
50738;DHT22;36703;48.154;17.126;2022-09-17T19:40:15;17.10;52.40
50738;DHT22;36703;48.154;17.126;2022-09-17T19:44:16;17.10;52.60
50738;DHT22;36703;48.154;17.126;2022-09-17T19:48:17;17.10;52.70
50738;DHT22;36703;48.154;17.126;2022-09-17T19:52:19;17.10;52.80
50738;DHT22;36703;48.154;17.126;2022-09-17T19:56:23;17.00;52.90
50738;DHT22;36703;48.154;17.126;2022-09-17T20:00:25;17.00;53.00
50738;DHT22;36703;48.154;17.126;2022-09-17T20:04:27;17.00;53.00
50738;DHT22;36703;48.154;17.126;2022-09-17T20:08:28;17.00;53.10
50738;DHT22;36703;48.154;17.126;2022-09-17T20:12:30;17.00;53.10
50738;DHT22;36703;48.154;17.126;2022-09-17T20:16:33;17.00;53.20
50738;DHT22;36703;48.154;17.126;2022-09-17T20:20:40;17.00;53.10
50738;DHT22;36703;48.154;17.126;2022-09-17T20:24:41;16.90;53.10
50738;DHT22;36703;48.154;17.126;2022-09-17T20:28:43;16.90;53.20
50738;DHT22;36703;48.154;17.126;2022-09-17T20:32:44;16.90;53.20
50738;DHT22;36703;48.154;17.126;2022-09-17T20:36:46;16.80;53.10
50738;DHT22;36703;48.154;17.126;2022-09-17T20:40:47;16.80;53.10
50738;DHT22;36703;48.154;17.126;2022-09-17T20:44:50;16.80;53.10
50738;DHT22;36703;48.154;17.126;2022-09-17T20:48:51;16.80;53.00
50738;DHT22;36703;48.154;17.126;2022-09-17T20:52:53;16.80;52.90
50738;DHT22;36703;48.154;17.126;2022-09-17T20:56:54;16.80;52.80
50738;DHT22;36703;48.154;17.126;2022-09-17T21:01:09;16.70;52.60
50738;DHT22;36703;48.154;17.126;2022-09-17T21:05:16;16.70;52.60
50738;DHT22;36703;48.154;17.126;2022-09-17T21:09:18;16.70;52.50
50738;DHT22;36703;48.154;17.126;2022-09-17T21:13:20;16.70;52.40
50738;DHT22;36703;48.154;17.126;2022-09-17T21:17:21;16.70;52.20
50738;DHT22;36703;48.154;17.126;2022-09-17T21:21:22;16.70;52.10
50738;DHT22;36703;48.154;17.126;2022-09-17T21:25:24;16.70;52.00
50738;DHT22;36703;48.154;17.126;2022-09-17T21:29:25;16.70;52.00
50738;DHT22;36703;48.154;17.126;2022-09-17T21:33:26;16.70;52.00
50738;DHT22;36703;48.154;17.126;2022-09-17T21:37:28;16.70;52.00
50738;DHT22;36703;48.154;17.126;2022-09-17T21:41:29;16.70;51.90
50738;DHT22;36703;48.154;17.126;2022-09-17T21:45:31;16.80;52.00
50738;DHT22;36703;48.154;17.126;2022-09-17T21:49:32;16.60;51.90
50738;DHT22;36703;48.154;17.126;2022-09-17T21:53:34;16.60;51.90
50738;DHT22;36703;48.154;17.126;2022-09-17T21:57:36;16.50;51.80
50738;DHT22;36703;48.154;17.126;2022-09-17T22:01:43;16.50;51.80
50738;DHT22;36703;48.154;17.126;2022-09-17T22:05:47;16.50;51.70
50738;DHT22;36703;48.154;17.126;2022-09-17T22:09:49;16.50;51.60
50738;DHT22;36703;48.154;17.126;2022-09-17T22:14:01;16.50;51.50
50738;DHT22;36703;48.154;17.126;2022-09-17T22:18:10;16.50;51.30
50738;DHT22;36703;48.154;17.126;2022-09-17T22:22:11;16.50;51.20
50738;DHT22;36703;48.154;17.126;2022-09-17T22:26:13;16.40;51.00
50738;DHT22;36703;48.154;17.126;2022-09-17T22:30:15;16.40;50.80
50738;DHT22;36703;48.154;17.126;2022-09-17T22:34:21;16.40;50.60
50738;DHT22;36703;48.154;17.126;2022-09-17T22:38:22;16.40;50.40
50738;DHT22;36703;48.154;17.126;2022-09-17T22:42:24;16.30;50.10
50738;DHT22;36703;48.154;17.126;2022-09-17T22:46:26;16.30;50.00
50738;DHT22;36703;48.154;17.126;2022-09-17T22:50:29;16.30;50.00
50738;DHT22;36703;48.154;17.126;2022-09-17T22:54:30;16.30;49.80
50738;DHT22;36703;48.154;17.126;2022-09-17T22:58:31;16.30;49.60
50738;DHT22;36703;48.154;17.126;2022-09-17T23:02:33;16.30;49.50
50738;DHT22;36703;48.154;17.126;2022-09-17T23:06:37;16.30;49.30
50738;DHT22;36703;48.154;17.126;2022-09-17T23:10:40;16.20;49.20
50738;DHT22;36703;48.154;17.126;2022-09-17T23:14:42;16.20;49.10
50738;DHT22;36703;48.154;17.126;2022-09-17T23:18:43;16.20;49.00
50738;DHT22;36703;48.154;17.126;2022-09-17T23:22:45;16.20;48.90
50738;DHT22;36703;48.154;17.126;2022-09-17T23:26:46;16.10;48.80
50738;DHT22;36703;48.154;17.126;2022-09-17T23:30:48;16.10;48.80
50738;DHT22;36703;48.154;17.126;2022-09-17T23:34:49;16.10;48.80
50738;DHT22;36703;48.154;17.126;2022-09-17T23:38:51;16.10;48.80
50738;DHT22;36703;48.154;17.126;2022-09-17T23:42:54;16.10;48.70
50738;DHT22;36703;48.154;17.126;2022-09-17T23:46:56;16.10;48.70
50738;DHT22;36703;48.154;17.126;2022-09-17T23:50:57;16.10;48.60
50738;DHT22;36703;48.154;17.126;2022-09-17T23:54:59;16.10;48.70
50738;DHT22;36703;48.154;17.126;2022-09-17T23:59:00;16.00;48.70
